Time;durP1;ratioP1;P1;durP2;ratioP2;P2;SDS_P1;SDS_P2;PMS_P1;PMS_P2;Temp;Humidity;BMP_temperature;BMP_pressure;BME280_temperature;BME280_humidity;BME280_pressure;Samples;Min_cycle;Max_cycle;Signal;HPM_P1;HPM_P2
2021/12/30 06:00:47;;;;;;;5.20;0.63;;;13.10;99.90;;;;;;6033279;23;21001;-81
2021/12/30 06:03:15;;;;;;;2.13;0.40;;;13.10;99.90;;;;;;4879143;29;20061;-82
2021/12/30 06:05:42;;;;;;;1.10;0.40;;;13.10;99.90;;;;;;4880602;29;20056;-83
2021/12/30 06:08:09;;;;;;;0.55;0.20;;;13.10;99.90;;;;;;4879869;29;20084;-83
2021/12/30 06:10:37;;;;;;;0.40;0.20;;;13.10;99.90;;;;;;4881102;29;20624;-83
2021/12/30 06:13:04;;;;;;;1.23;0.30;;;13.10;99.90;;;;;;4881506;29;20144;-83
2021/12/30 06:15:31;;;;;;;1.52;0.40;;;13.10;99.90;;;;;;4881572;29;20063;-85
2021/12/30 06:18:00;;;;;;;0.45;0.30;;;13.10;99.90;;;;;;4880141;29;20059;-84
2021/12/30 06:20:28;;;;;;;0.73;0.20;;;13.20;99.90;;;;;;4881185;29;20468;-82
2021/12/30 06:22:55;;;;;;;1.45;0.40;;;13.20;99.90;;;;;;4881001;29;20487;-84
2021/12/30 06:25:22;;;;;;;0.73;0.20;;;13.20;99.90;;;;;;4881407;29;20136;-82
2021/12/30 06:27:49;;;;;;;1.60;0.50;;;13.20;99.90;;;;;;4881412;29;20053;-84
2021/12/30 06:30:17;;;;;;;1.33;0.45;;;13.10;99.90;;;;;;4881112;29;20162;-83
2021/12/30 06:32:44;;;;;;;0.85;0.30;;;13.10;99.90;;;;;;4881365;29;20470;-84
2021/12/30 06:35:12;;;;;;;1.38;0.40;;;13.20;99.90;;;;;;4865019;29;20406;-82
2021/12/30 06:37:41;;;;;;;1.13;0.20;;;13.20;99.90;;;;;;4881214;29;20049;-84
2021/12/30 06:40:12;;;;;;;0.75;0.38;;;13.20;99.90;;;;;;4881021;29;20049;-83
2021/12/30 06:42:41;;;;;;;0.40;0.20;;;13.20;99.90;;;;;;4864687;29;20057;-83
2021/12/30 06:45:09;;;;;;;0.85;0.30;;;13.20;99.90;;;;;;4881083;29;20060;-84
2021/12/30 06:47:36;;;;;;;0.30;0.20;;;13.20;99.90;;;;;;4864279;29;20136;-84
2021/12/30 06:50:04;;;;;;;1.13;0.40;;;13.20;99.90;;;;;;4881072;29;20483;-85
2021/12/30 06:52:33;;;;;;;1.40;0.30;;;13.10;99.90;;;;;;4880816;29;20084;-83
2021/12/30 06:55:00;;;;;;;1.15;0.38;;;13.10;99.90;;;;;;4881397;29;20141;-82
2021/12/30 06:57:29;;;;;;;0.38;0.15;;;13.10;99.90;;;;;;4880765;29;20399;-83
2021/12/30 06:59:56;;;;;;;0.73;0.30;;;13.10;99.90;;;;;;4881002;29;20056;-84
2021/12/30 07:02:24;;;;;;;0.20;0.20;;;13.10;99.90;;;;;;4907208;29;20061;-88
2021/12/30 07:04:51;;;;;;;0.80;0.22;;;13.10;99.90;;;;;;4876329;29;20080;-84
2021/12/30 07:07:18;;;;;;;0.93;0.40;;;13.10;99.90;;;;;;4879039;29;20559;-82
2021/12/30 07:09:47;;;;;;;0.57;0.30;;;13.10;99.90;;;;;;4879748;29;20045;-82
2021/12/30 07:12:14;;;;;;;0.88;0.30;;;13.10;99.90;;;;;;4879176;29;20049;-82
2021/12/30 07:14:41;;;;;;;0.85;0.30;;;13.10;99.90;;;;;;4880116;29;20084;-80
2021/12/30 07:17:08;;;;;;;1.20;0.38;;;13.10;99.90;;;;;;4880801;29;20135;-80
2021/12/30 07:19:35;;;;;;;0.93;0.30;;;13.10;99.90;;;;;;4879424;29;20056;-82
2021/12/30 07:22:03;;;;;;;0.50;0.20;;;13.10;99.90;;;;;;4880190;29;20049;-83
2021/12/30 07:24:30;;;;;;;0.50;0.20;;;13.10;99.90;;;;;;4880560;29;20141;-84
2021/12/30 07:26:59;;;;;;;1.25;0.32;;;13.10;99.90;;;;;;4880071;29;20060;-85
2021/12/30 07:29:26;;;;;;;0.90;0.32;;;13.10;99.90;;;;;;4881394;29;20071;-83
2021/12/30 07:31:53;;;;;;;1.33;0.40;;;13.10;99.90;;;;;;4880088;29;20045;-83
2021/12/30 07:34:20;;;;;;;0.95;0.30;;;13.10;99.90;;;;;;4880405;29;20049;-86
2021/12/30 07:36:48;;;;;;;1.38;0.40;;;13.10;99.90;;;;;;4886623;29;20061;-85
2021/12/30 07:39:15;;;;;;;1.33;0.40;;;13.10;99.90;;;;;;4880579;29;20080;-84
2021/12/30 07:41:42;;;;;;;2.00;0.38;;;13.10;99.90;;;;;;4880559;29;20415;-86
2021/12/30 07:44:10;;;;;;;2.88;0.40;;;13.10;99.90;;;;;;4880427;29;20411;-83
2021/12/30 07:46:37;;;;;;;1.27;0.50;;;13.10;99.90;;;;;;4883150;29;20477;-84
2021/12/30 07:49:05;;;;;;;1.60;0.50;;;13.20;99.90;;;;;;4879943;29;20124;-83
2021/12/30 07:51:33;;;;;;;1.67;0.40;;;13.10;99.90;;;;;;4866975;29;20492;-87
2021/12/30 07:54:00;;;;;;;2.13;0.43;;;13.20;99.90;;;;;;4880179;29;20140;-88
2021/12/30 07:56:28;;;;;;;2.45;0.40;;;13.20;99.90;;;;;;4880473;29;20490;-86
2021/12/30 07:58:55;;;;;;;0.70;0.20;;;13.20;99.90;;;;;;4886092;29;20113;-88
2021/12/30 08:01:24;;;;;;;1.10;0.40;;;13.20;99.90;;;;;;4891761;29;20057;-87
2021/12/30 08:03:51;;;;;;;2.17;0.30;;;13.20;99.90;;;;;;4889724;29;20073;-88
2021/12/30 08:06:18;;;;;;;0.50;0.30;;;13.20;99.90;;;;;;4877781;29;20056;-87
2021/12/30 08:08:45;;;;;;;1.45;0.22;;;13.20;99.90;;;;;;4877786;29;20080;-88
2021/12/30 08:11:13;;;;;;;1.08;0.45;;;13.20;99.90;;;;;;4878034;29;20563;-86
2021/12/30 08:13:40;;;;;;;0.65;0.30;;;13.20;99.90;;;;;;4876984;29;20131;-87
2021/12/30 08:16:07;;;;;;;0.95;0.40;;;13.30;99.90;;;;;;4877301;29;20219;-86
2021/12/30 08:18:36;;;;;;;1.42;0.43;;;13.20;99.90;;;;;;4877505;29;20060;-86
2021/12/30 08:21:04;;;;;;;0.77;0.30;;;13.20;99.90;;;;;;4889972;29;20116;-86
2021/12/30 08:23:31;;;;;;;3.00;0.60;;;13.20;99.90;;;;;;4880628;29;20057;-85
2021/12/30 08:25:59;;;;;;;0.57;0.30;;;13.30;99.90;;;;;;4877921;29;20144;-87
2021/12/30 08:28:27;;;;;;;1.30;0.50;;;13.30;99.90;;;;;;4878035;29;20466;-86
2021/12/30 08:30:54;;;;;;;1.30;0.43;;;13.30;99.90;;;;;;4877835;29;20108;-87
2021/12/30 08:33:22;;;;;;;1.67;0.50;;;13.40;99.90;;;;;;4877762;29;20072;-86
2021/12/30 08:35:51;;;;;;;1.17;0.40;;;13.40;99.90;;;;;;4880688;29;20570;-87
2021/12/30 08:38:19;;;;;;;0.77;0.30;;;13.40;99.90;;;;;;4877584;29;20053;-87
2021/12/30 08:40:47;;;;;;;0.95;0.32;;;13.50;99.90;;;;;;4876940;29;20050;-88
2021/12/30 08:43:15;;;;;;;1.50;0.40;;;13.50;99.90;;;;;;4880035;29;20053;-84
2021/12/30 08:45:43;;;;;;;1.38;0.40;;;13.50;99.90;;;;;;4880386;29;20206;-85
2021/12/30 08:48:10;;;;;;;1.38;0.60;;;13.50;99.90;;;;;;4880653;29;20136;-88
2021/12/30 08:50:38;;;;;;;1.48;0.50;;;13.60;99.90;;;;;;4881442;29;20139;-83
2021/12/30 08:53:08;;;;;;;2.70;0.60;;;13.60;99.90;;;;;;4880289;29;20099;-88
2021/12/30 08:55:36;;;;;;;1.55;0.40;;;13.60;99.90;;;;;;4879800;29;20065;-81
2021/12/30 08:58:04;;;;;;;1.95;0.38;;;13.70;99.90;;;;;;4879180;29;20049;-81
2021/12/30 09:00:38;;;;;;;1.95;0.40;;;13.70;99.90;;;;;;4879287;29;20092;-81
2021/12/30 09:03:06;;;;;;;3.07;0.30;;;13.80;99.90;;;;;;4879242;29;20124;-81
2021/12/30 09:05:34;;;;;;;1.73;0.30;;;13.80;99.90;;;;;;4879146;29;20522;-80
2021/12/30 09:08:01;;;;;;;2.00;0.40;;;13.80;99.90;;;;;;4879039;29;20517;-81
2021/12/30 09:10:34;;;;;;;0.25;0.20;;;13.80;99.90;;;;;;4868086;29;20048;-83
2021/12/30 09:13:01;;;;;;;1.10;0.50;;;13.90;99.90;;;;;;4879023;29;20123;-80
2021/12/30 09:15:29;;;;;;;1.40;0.52;;;13.90;99.90;;;;;;4878734;29;20049;-80
2021/12/30 09:17:57;;;;;;;0.88;0.40;;;13.90;99.90;;;;;;4879021;29;20068;-79
2021/12/30 09:20:25;;;;;;;0.82;0.30;;;13.90;99.90;;;;;;4877990;29;20268;-77
2021/12/30 09:22:54;;;;;;;1.70;0.43;;;14.00;99.90;;;;;;4875305;29;20587;-78
2021/12/30 09:25:23;;;;;;;1.05;0.35;;;14.00;99.90;;;;;;4877838;29;20135;-78
2021/12/30 09:27:54;;;;;;;0.98;0.40;;;14.00;99.90;;;;;;4875573;29;20049;-78
2021/12/30 09:30:21;;;;;;;1.15;0.50;;;14.10;99.90;;;;;;4877626;29;20132;-79
2021/12/30 09:32:51;;;;;;;1.80;0.50;;;14.10;99.90;;;;;;4877928;29;20049;-81
2021/12/30 09:35:19;;;;;;;2.63;0.50;;;14.10;99.90;;;;;;4877056;29;20108;-81
2021/12/30 09:37:47;;;;;;;0.90;0.30;;;14.20;99.90;;;;;;4868579;29;20051;-78
2021/12/30 09:40:17;;;;;;;1.00;0.40;;;14.30;99.90;;;;;;4877399;29;20135;-81
2021/12/30 09:42:50;;;;;;;3.65;0.40;;;14.30;99.90;;;;;;4878284;29;20132;-81
2021/12/30 09:45:20;;;;;;;1.35;0.50;;;14.40;99.90;;;;;;4875060;29;20392;-81
2021/12/30 09:47:51;;;;;;;0.88;0.30;;;14.40;99.90;;;;;;4876272;29;20144;-82
2021/12/30 09:50:21;;;;;;;1.35;0.40;;;14.50;99.90;;;;;;4878209;29;20124;-83
2021/12/30 09:52:48;;;;;;;0.68;0.35;;;14.60;99.90;;;;;;4877307;29;20570;-81
2021/12/30 09:55:15;;;;;;;4.55;1.88;;;14.60;99.90;;;;;;4876512;29;20571;-81
2021/12/30 09:57:42;;;;;;;7.85;3.20;;;14.70;99.90;;;;;;4877627;29;20072;-80
2021/12/30 10:00:14;;;;;;;4.70;1.90;;;14.70;99.90;;;;;;4877118;29;20558;-80
2021/12/30 10:02:47;;;;;;;0.98;0.50;;;14.70;99.90;;;;;;4877294;29;20515;-80
2021/12/30 10:05:18;;;;;;;2.50;0.50;;;14.80;99.90;;;;;;4877335;29;20049;-78
2021/12/30 10:07:46;;;;;;;0.80;0.30;;;14.80;99.90;;;;;;4876954;29;20061;-79
2021/12/30 10:10:28;;;;;;;0.65;0.30;;;14.90;99.90;;;;;;4876453;29;20294;-79
2021/12/30 10:12:55;;;;;;;0.63;0.30;;;14.90;99.90;;;;;;4878043;29;20060;-80
2021/12/30 10:15:29;;;;;;;1.27;0.50;;;14.90;99.90;;;;;;4880879;29;20045;-80
2021/12/30 10:18:00;;;;;;;2.03;0.40;;;15.00;99.90;;;;;;4883193;29;20143;-80
2021/12/30 10:20:30;;;;;;;0.95;0.43;;;14.90;99.90;;;;;;4881385;29;20057;-81
2021/12/30 10:23:10;;;;;;;0.82;0.30;;;15.00;99.90;;;;;;4882684;29;20053;-82
2021/12/30 10:25:40;;;;;;;0.80;0.30;;;15.00;99.90;;;;;;4874805;29;20049;-81
2021/12/30 10:28:21;;;;;;;0.80;0.40;;;15.00;99.90;;;;;;4879464;29;20487;-80
2021/12/30 10:30:50;;;;;;;1.60;0.50;;;15.00;99.90;;;;;;4880839;29;20049;-81
2021/12/30 10:33:21;;;;;;;0.85;0.30;;;15.10;99.90;;;;;;4882248;29;20113;-82
2021/12/30 10:35:49;;;;;;;1.98;0.52;;;15.10;99.90;;;;;;4880729;29;20180;-80
2021/12/30 10:38:17;;;;;;;0.93;0.30;;;15.10;99.90;;;;;;4880630;29;20057;-81
2021/12/30 10:40:49;;;;;;;0.80;0.30;;;15.10;99.90;;;;;;4895246;29;20079;-81
2021/12/30 10:43:29;;;;;;;0.63;0.30;;;15.20;99.90;;;;;;4880292;29;20140;-79
2021/12/30 10:46:13;;;;;;;0.50;0.30;;;15.10;99.90;;;;;;4877592;29;20048;-79
2021/12/30 10:48:51;;;;;;;0.50;0.28;;;15.20;99.90;;;;;;4879271;29;20136;-81
2021/12/30 10:51:22;;;;;;;0.38;0.22;;;15.20;99.90;;;;;;4879856;29;20408;-79
2021/12/30 10:53:53;;;;;;;0.85;0.32;;;15.30;99.90;;;;;;4879926;29;20143;-81
2021/12/30 10:56:24;;;;;;;0.85;0.30;;;15.30;99.90;;;;;;4879167;29;20776;-81
2021/12/30 10:59:07;;;;;;;0.85;0.10;;;15.30;99.90;;;;;;4878445;29;20072;-80
2021/12/30 11:01:40;;;;;;;0.30;0.20;;;15.30;99.90;;;;;;4863720;29;20070;-82
2021/12/30 11:04:09;;;;;;;0.50;0.17;;;15.30;99.90;;;;;;4878051;29;20048;-80
2021/12/30 11:06:37;;;;;;;0.65;0.20;;;15.30;99.90;;;;;;4878256;29;20053;-80
2021/12/30 11:09:12;;;;;;;0.52;0.20;;;15.30;99.90;;;;;;4873965;29;20060;-80
2021/12/30 11:11:48;;;;;;;0.28;0.20;;;15.30;99.90;;;;;;4877218;29;20079;-80
2021/12/30 11:14:18;;;;;;;0.52;0.20;;;15.30;99.90;;;;;;4877080;29;20061;-80
2021/12/30 11:17:07;;;;;;;0.68;0.28;;;15.30;99.90;;;;;;4877860;29;20143;-80
2021/12/30 11:19:42;;;;;;;0.60;0.13;;;15.40;99.90;;;;;;4866665;29;20053;-79
2021/12/30 11:22:14;;;;;;;1.02;0.22;;;15.40;99.90;;;;;;4859142;29;20491;-79
2021/12/30 11:24:45;;;;;;;0.82;0.40;;;15.40;99.90;;;;;;4859557;29;20050;-79
2021/12/30 11:27:15;;;;;;;0.45;0.30;;;15.40;99.90;;;;;;4859648;29;20061;-81
2021/12/30 11:29:46;;;;;;;2.40;0.30;;;15.50;99.90;;;;;;4859299;29;20057;-79
2021/12/30 11:32:18;;;;;;;0.82;0.30;;;15.60;99.90;;;;;;4871272;29;20053;-77
2021/12/30 11:34:48;;;;;;;0.75;0.38;;;15.60;99.90;;;;;;4877874;29;20160;-81
2021/12/30 11:37:17;;;;;;;0.80;0.28;;;15.60;99.90;;;;;;4880221;29;20077;-82
2021/12/30 11:39:46;;;;;;;2.40;0.95;;;15.60;99.90;;;;;;4880440;29;20053;-84
2021/12/30 11:42:20;;;;;;;12.63;5.32;;;15.70;99.90;;;;;;4880091;29;20136;-84
2021/12/30 11:44:50;;;;;;;2.05;0.75;;;15.70;99.90;;;;;;4881973;29;20053;-83
2021/12/30 11:47:40;;;;;;;1.27;0.50;;;15.70;99.90;;;;;;4867535;29;20057;-82
2021/12/30 11:50:18;;;;;;;0.50;0.25;;;15.70;99.90;;;;;;4879178;29;20053;-81
2021/12/30 11:52:53;;;;;;;1.10;0.40;;;15.70;99.90;;;;;;4866754;29;20057;-82
2021/12/30 11:55:49;;;;;;;;;;;15.80;99.90;;;;;;4874824;29;20066;-82
2021/12/30 11:58:45;;;;;;;0.40;0.20;;;15.80;99.90;;;;;;4877367;29;19932;-83
2021/12/30 12:01:40;;;;;;;1.45;0.30;;;15.80;99.90;;;;;;4876297;29;20064;-79
2021/12/30 12:04:14;;;;;;;1.00;0.35;;;15.80;99.90;;;;;;4872898;29;20053;-83
2021/12/30 12:07:13;;;;;;;1.02;0.30;;;15.80;99.90;;;;;;4875808;29;20049;-79
2021/12/30 12:09:43;;;;;;;1.42;0.30;;;15.80;99.90;;;;;;4855332;29;20144;-78
2021/12/30 12:12:14;;;;;;;0.40;0.30;;;15.80;99.90;;;;;;4875178;29;20484;-84
2021/12/30 12:14:55;;;;;;;0.73;0.20;;;15.90;99.90;;;;;;4874791;29;20059;-81
2021/12/30 12:17:37;;;;;;;0.90;0.30;;;15.90;99.90;;;;;;4878777;29;20122;-79
2021/12/30 12:20:23;;;;;;;1.30;0.50;;;16.00;99.90;;;;;;4869016;29;20145;-80
2021/12/30 12:22:52;;;;;;;0.52;0.20;;;15.90;99.90;;;;;;4875155;29;20141;-78
2021/12/30 12:25:22;;;;;;;1.55;0.65;;;15.90;99.90;;;;;;4878284;29;20065;-80
2021/12/30 12:27:52;;;;;;;1.42;0.60;;;16.00;99.90;;;;;;4878948;29;20053;-80
2021/12/30 12:30:28;;;;;;;2.75;1.10;;;15.90;99.90;;;;;;4871111;29;20136;-79
2021/12/30 12:32:58;;;;;;;1.85;0.88;;;16.00;99.90;;;;;;4878955;29;20092;-80
2021/12/30 12:35:29;;;;;;;0.93;0.40;;;16.00;99.90;;;;;;4877833;29;20056;-79
2021/12/30 12:38:01;;;;;;;0.82;0.40;;;16.00;99.90;;;;;;4878132;29;20068;-82
2021/12/30 12:40:36;;;;;;;1.42;0.57;;;16.10;99.90;;;;;;4871732;29;20057;-80
2021/12/30 12:43:26;;;;;;;1.27;0.43;;;16.30;99.90;;;;;;4878295;29;20057;-79
2021/12/30 12:45:58;;;;;;;1.35;0.50;;;16.40;99.90;;;;;;4878023;29;20503;-80
2021/12/30 12:48:36;;;;;;;1.35;0.52;;;16.60;99.90;;;;;;4873863;29;20053;-79
2021/12/30 12:51:07;;;;;;;1.13;0.30;;;16.70;99.90;;;;;;4879757;29;20472;-79
2021/12/30 12:53:50;;;;;;;0.55;0.28;;;16.90;99.90;;;;;;4880012;29;20092;-80
2021/12/30 12:56:23;;;;;;;1.10;0.50;;;17.10;99.90;;;;;;4876722;29;20045;-79
2021/12/30 12:58:53;;;;;;;1.40;0.40;;;17.40;99.90;;;;;;4879044;29;20060;-79
2021/12/30 13:01:23;;;;;;;0.70;0.30;;;17.60;99.90;;;;;;4877914;29;20068;-79
2021/12/30 13:03:52;;;;;;;0.88;0.32;;;17.70;99.90;;;;;;4878804;29;20180;-78
2021/12/30 13:06:24;;;;;;;0.28;0.20;;;17.80;99.90;;;;;;4874103;29;20403;-79
2021/12/30 13:08:54;;;;;;;0.98;0.40;;;18.10;99.60;;;;;;4878114;29;20136;-81
2021/12/30 13:11:32;;;;;;;0.82;0.40;;;18.20;98.90;;;;;;4878041;29;20053;-80
2021/12/30 13:14:01;;;;;;;7.72;3.95;;;18.10;98.90;;;;;;4878171;29;20140;-80
2021/12/30 13:16:31;;;;;;;5.15;2.58;;;17.90;99.00;;;;;;4877881;29;20476;-80
2021/12/30 13:19:10;;;;;;;16.45;8.80;;;17.70;99.20;;;;;;4877847;29;20439;-81
2021/12/30 13:21:55;;;;;;;1.52;0.63;;;17.60;99.70;;;;;;4876613;29;20068;-80
2021/12/30 13:24:44;;;;;;;0.82;0.40;;;17.40;99.90;;;;;;4875029;29;20113;-81
2021/12/30 13:27:34;;;;;;;0.70;0.35;;;17.30;99.90;;;;;;4876916;29;20053;-79
2021/12/30 13:30:07;;;;;;;0.68;0.40;;;17.70;99.90;;;;;;4859647;29;20057;-80
2021/12/30 13:32:36;;;;;;;2.75;0.70;;;18.80;99.70;;;;;;4876208;29;20191;-80
2021/12/30 13:35:07;;;;;;;1.40;0.40;;;20.00;96.80;;;;;;4876915;29;20068;-78
2021/12/30 13:37:38;;;;;;;1.20;0.40;;;20.40;95.40;;;;;;4870899;29;20479;-78
2021/12/30 13:40:18;;;;;;;1.27;0.50;;;20.20;94.20;;;;;;4876812;29;20049;-79
2021/12/30 13:42:51;;;;;;;0.88;0.35;;;;;;;;;;4877500;29;20045;-80
2021/12/30 13:45:26;;;;;;;1.17;0.40;;;22.00;98.70;;;;;;4877841;29;20049;-78
2021/12/30 13:47:54;;;;;;;1.20;0.40;;;22.90;98.30;;;;;;4877821;29;20049;-80
2021/12/30 13:50:22;;;;;;;2.03;0.70;;;;;;;;;;4877440;29;20057;-79
2021/12/30 13:52:53;;;;;;;2.20;0.60;;;25.40;73.00;;;;;;4876263;29;20045;-78
2021/12/30 13:55:26;;;;;;;0.85;0.30;;;25.80;69.10;;;;;;4877939;29;20045;-77
2021/12/30 13:58:09;;;;;;;0.77;0.40;;;25.70;67.00;;;;;;4877960;29;20048;-78
2021/12/30 14:00:41;;;;;;;2.17;0.60;;;25.50;66.90;;;;;;4878157;29;20139;-78
2021/12/30 14:03:11;;;;;;;1.05;0.40;;;24.80;66.90;;;;;;4876518;29;20136;-78
2021/12/30 14:05:40;;;;;;;1.10;0.50;;;23.70;69.60;;;;;;4872745;29;20052;-79
2021/12/30 14:08:10;;;;;;;1.10;0.47;;;22.70;73.20;;;;;;4878171;29;20057;-78
2021/12/30 14:10:54;;;;;;;0.98;0.40;;;21.80;77.40;;;;;;4878053;29;20114;-79
2021/12/30 14:13:33;;;;;;;2.50;0.70;;;20.90;83.00;;;;;;4878030;29;20136;-79
2021/12/30 14:16:01;;;;;;;1.33;0.40;;;20.20;88.90;;;;;;4877862;29;20140;-78
2021/12/30 14:18:31;;;;;;;0.88;0.50;;;19.60;91.80;;;;;;4878254;29;20113;-78
2021/12/30 14:20:59;;;;;;;1.00;0.35;;;19.10;93.60;;;;;;4877492;29;20665;-82
2021/12/30 14:23:32;;;;;;;1.52;0.50;;;18.80;94.90;;;;;;4877054;29;20109;-80
2021/12/30 14:26:16;;;;;;;1.15;0.38;;;18.40;96.00;;;;;;4875701;29;20049;-82
2021/12/30 14:29:07;;;;;;;;;;;18.10;97.10;;;;;;4875423;29;20456;-80
2021/12/30 14:31:41;;;;;;;1.42;0.40;;;17.80;98.10;;;;;;4868691;29;19924;-81
2021/12/30 14:34:16;;;;;;;1.42;0.50;;;17.50;98.90;;;;;;4875421;29;20060;-81
2021/12/30 14:36:58;;;;;;;1.17;0.50;;;17.30;99.50;;;;;;4877254;29;20053;-80
2021/12/30 14:39:39;;;;;;;1.00;0.43;;;17.10;99.90;;;;;;4876433;29;20049;-81
2021/12/30 14:42:16;;;;;;;2.45;0.98;;;16.90;99.90;;;;;;4876409;29;20116;-81
2021/12/30 14:44:47;;;;;;;9.90;4.80;;;16.80;99.90;;;;;;4870331;29;20049;-79
2021/12/30 14:47:23;;;;;;;3.10;1.30;;;16.80;99.90;;;;;;4875680;29;20060;-80
2021/12/30 14:49:59;;;;;;;1.38;0.40;;;16.70;99.90;;;;;;4877275;29;20411;-79
2021/12/30 14:52:29;;;;;;;0.95;0.40;;;16.60;99.90;;;;;;4877172;29;20056;-80
2021/12/30 14:54:57;;;;;;;1.58;0.50;;;16.60;99.90;;;;;;4877220;29;20053;-81
2021/12/30 14:57:27;;;;;;;1.05;0.40;;;16.50;99.90;;;;;;4877401;29;20710;-80
2021/12/30 15:00:00;;;;;;;1.27;0.40;;;16.40;99.90;;;;;;4877112;29;20431;-81
2021/12/30 15:02:30;;;;;;;0.98;0.40;;;16.30;99.90;;;;;;4876688;29;20068;-80
2021/12/30 15:04:58;;;;;;;1.33;0.60;;;16.30;99.90;;;;;;4876931;29;20410;-85
2021/12/30 15:07:25;;;;;;;1.23;0.47;;;16.30;99.90;;;;;;4876412;29;20140;-81
2021/12/30 15:09:54;;;;;;;1.00;0.40;;;16.20;99.90;;;;;;4876380;29;20100;-80
2021/12/30 15:12:24;;;;;;;1.98;0.45;;;16.20;99.90;;;;;;4876456;29;20470;-82
2021/12/30 15:14:55;;;;;;;1.25;0.40;;;16.20;99.90;;;;;;4874956;29;20571;-81
2021/12/30 15:17:23;;;;;;;1.27;0.50;;;16.10;99.90;;;;;;4877268;29;20060;-80
2021/12/30 15:19:51;;;;;;;0.95;0.50;;;16.10;99.90;;;;;;4876620;29;20067;-81
2021/12/30 15:22:19;;;;;;;1.35;0.50;;;16.00;99.90;;;;;;4877896;29;20149;-81
2021/12/30 15:24:48;;;;;;;0.73;0.30;;;16.00;99.90;;;;;;4878952;29;20067;-82
2021/12/30 15:27:16;;;;;;;1.90;0.50;;;16.00;99.90;;;;;;4878193;29;20053;-81
2021/12/30 15:29:43;;;;;;;1.00;0.40;;;16.00;99.90;;;;;;4877728;29;20133;-80
2021/12/30 15:32:13;;;;;;;1.23;0.40;;;15.90;99.90;;;;;;4874200;29;20067;-79
2021/12/30 15:34:40;;;;;;;1.77;0.60;;;15.90;99.90;;;;;;4876561;29;20041;-80
2021/12/30 15:37:08;;;;;;;1.40;0.60;;;15.80;99.90;;;;;;4876006;29;20064;-77
2021/12/30 15:39:36;;;;;;;1.40;0.50;;;15.80;99.90;;;;;;4876725;29;20052;-78
2021/12/30 15:42:04;;;;;;;1.60;0.50;;;15.80;99.90;;;;;;4875540;29;20084;-77
2021/12/30 15:44:31;;;;;;;1.23;0.45;;;15.70;99.90;;;;;;4871589;29;20076;-79
2021/12/30 15:46:59;;;;;;;1.50;0.60;;;15.70;99.90;;;;;;4876420;29;20049;-79
2021/12/30 15:49:27;;;;;;;1.58;0.57;;;15.60;99.90;;;;;;4876508;29;20073;-80
2021/12/30 15:51:54;;;;;;;1.88;0.65;;;15.60;99.90;;;;;;4876191;29;20048;-78
2021/12/30 15:54:23;;;;;;;1.67;0.60;;;15.60;99.90;;;;;;4877733;29;20088;-80
2021/12/30 15:56:52;;;;;;;1.50;0.60;;;15.50;99.90;;;;;;4875779;29;20045;-80
2021/12/30 15:59:19;;;;;;;2.30;0.90;;;15.50;99.90;;;;;;4875862;29;20492;-79
2021/12/30 16:01:48;;;;;;;1.38;0.60;;;15.50;99.90;;;;;;4876142;29;20144;-79
2021/12/30 16:04:15;;;;;;;1.67;0.70;;;15.50;99.90;;;;;;4874945;29;20147;-77
2021/12/30 16:06:45;;;;;;;2.10;1.05;;;15.40;99.90;;;;;;4875444;29;20140;-78
2021/12/30 16:09:16;;;;;;;2.22;0.82;;;15.40;99.90;;;;;;4874781;29;20499;-81
2021/12/30 16:11:45;;;;;;;1.27;0.60;;;15.40;99.90;;;;;;4875954;29;20128;-82
2021/12/30 16:14:12;;;;;;;2.28;0.80;;;15.40;99.90;;;;;;4875665;29;20073;-81
2021/12/30 16:16:40;;;;;;;2.25;0.70;;;15.40;99.90;;;;;;4875492;29;20055;-82
2021/12/30 16:19:07;;;;;;;1.60;0.60;;;15.40;99.90;;;;;;4875688;29;20053;-81
2021/12/30 16:21:34;;;;;;;4.95;0.60;;;15.40;99.90;;;;;;4875913;29;20448;-80
2021/12/30 16:24:04;;;;;;;2.20;0.90;;;15.40;99.90;;;;;;4876212;29;20063;-80
2021/12/30 16:26:31;;;;;;;1.55;0.70;;;15.40;99.90;;;;;;4876184;29;20128;-80
2021/12/30 16:28:59;;;;;;;2.65;0.90;;;15.40;99.90;;;;;;4876063;29;20077;-80
2021/12/30 16:31:26;;;;;;;2.17;1.00;;;15.30;99.90;;;;;;4875470;29;20052;-79
2021/12/30 16:33:53;;;;;;;2.83;1.30;;;15.30;99.90;;;;;;4875385;29;20639;-79
2021/12/30 16:36:21;;;;;;;3.25;1.30;;;15.30;99.90;;;;;;4873959;29;20045;-79
2021/12/30 16:38:48;;;;;;;2.38;0.98;;;15.30;99.90;;;;;;4875190;29;20063;-79
2021/12/30 16:41:17;;;;;;;2.20;0.80;;;15.30;99.90;;;;;;4865440;29;20139;-78
2021/12/30 16:43:44;;;;;;;2.35;1.00;;;15.30;99.90;;;;;;4875967;29;20393;-80
2021/12/30 16:46:11;;;;;;;3.05;0.93;;;15.30;99.90;;;;;;4875790;29;20573;-81
2021/12/30 16:48:38;;;;;;;2.53;0.90;;;15.20;99.90;;;;;;4875396;29;20071;-82
2021/12/30 16:51:06;;;;;;;1.88;0.80;;;15.20;99.90;;;;;;4875235;29;20055;-79
2021/12/30 16:53:33;;;;;;;2.45;1.00;;;15.20;99.90;;;;;;4875632;29;20084;-80
2021/12/30 16:56:00;;;;;;;2.15;0.95;;;15.20;99.90;;;;;;4875858;29;20059;-78
2021/12/30 16:58:29;;;;;;;2.17;0.80;;;15.20;99.90;;;;;;4875823;29;20049;-79
2021/12/30 17:00:56;;;;;;;2.15;0.90;;;15.10;99.90;;;;;;4875447;29;20507;-78
2021/12/30 17:03:24;;;;;;;2.05;0.77;;;15.10;99.90;;;;;;4877388;29;20053;-80
2021/12/30 17:05:52;;;;;;;2.50;0.90;;;15.00;99.90;;;;;;4877195;29;20057;-79
2021/12/30 17:08:22;;;;;;;3.35;0.80;;;15.00;99.90;;;;;;4869236;29;20059;-80
2021/12/30 17:10:50;;;;;;;2.30;0.90;;;14.90;99.90;;;;;;4879171;29;20448;-81
2021/12/30 17:13:17;;;;;;;2.95;0.90;;;14.90;99.90;;;;;;4878341;29;20431;-78
2021/12/30 17:15:46;;;;;;;2.42;0.90;;;14.80;99.90;;;;;;4876944;29;20051;-79
2021/12/30 17:18:13;;;;;;;1.80;0.80;;;14.80;99.90;;;;;;4876615;29;20055;-80
2021/12/30 17:20:40;;;;;;;3.20;0.70;;;14.80;99.90;;;;;;4876055;29;20071;-80
2021/12/30 17:23:09;;;;;;;2.80;0.90;;;14.70;99.90;;;;;;4877518;29;20419;-79
2021/12/30 17:25:36;;;;;;;2.08;0.80;;;14.70;99.90;;;;;;4877152;29;20132;-79
2021/12/30 17:28:05;;;;;;;4.82;2.25;;;14.60;99.90;;;;;;4876563;29;20068;-79
2021/12/30 17:30:32;;;;;;;5.40;2.80;;;14.60;99.90;;;;;;4878483;29;20160;-82
2021/12/30 17:33:03;;;;;;;3.20;1.35;;;14.60;99.90;;;;;;4878092;29;20145;-82
2021/12/30 17:35:32;;;;;;;1.70;0.60;;;14.60;99.90;;;;;;4876337;29;20492;-79
2021/12/30 17:37:59;;;;;;;1.92;0.80;;;14.50;99.90;;;;;;4877033;29;20526;-81
2021/12/30 17:40:27;;;;;;;2.30;0.60;;;14.50;99.90;;;;;;4875858;29;20060;-79
2021/12/30 17:42:56;;;;;;;1.52;0.60;;;14.40;99.90;;;;;;4875504;29;20045;-80
2021/12/30 17:45:24;;;;;;;6.50;0.85;;;14.40;99.90;;;;;;4877026;29;20056;-79
2021/12/30 17:47:52;;;;;;;1.75;0.70;;;14.40;99.90;;;;;;4877126;29;20100;-78
2021/12/30 17:50:25;;;;;;;1.55;0.60;;;14.30;99.90;;;;;;4877124;29;20056;-77
2021/12/30 17:52:54;;;;;;;1.33;0.60;;;14.30;99.90;;;;;;4877687;29;20106;-80
2021/12/30 17:55:24;;;;;;;1.13;0.60;;;14.30;99.90;;;;;;4876568;29;20491;-79
2021/12/30 17:57:52;;;;;;;2.42;0.70;;;14.30;99.90;;;;;;4877061;29;20053;-80
2021/12/30 18:00:21;;;;;;;1.70;0.80;;;14.30;99.90;;;;;;4876433;29;20063;-80
2021/12/30 18:02:48;;;;;;;1.40;0.68;;;14.20;99.90;;;;;;4876653;29;20061;-78
2021/12/30 18:05:16;;;;;;;2.05;0.80;;;14.30;99.90;;;;;;4874063;29;20053;-79
2021/12/30 18:07:45;;;;;;;1.95;0.70;;;14.20;99.90;;;;;;4876678;29;20530;-79
2021/12/30 18:10:12;;;;;;;2.47;0.80;;;14.30;99.90;;;;;;4876963;29;20131;-79
2021/12/30 18:12:40;;;;;;;2.13;0.77;;;14.20;99.90;;;;;;4876298;29;20067;-79
2021/12/30 18:15:09;;;;;;;2.50;0.70;;;14.20;99.90;;;;;;4876463;29;20063;-78
2021/12/30 18:17:36;;;;;;;2.28;0.80;;;14.20;99.90;;;;;;4876647;29;20044;-79
2021/12/30 18:20:06;;;;;;;3.08;1.10;;;14.30;99.90;;;;;;4876417;29;20049;-79
2021/12/30 18:22:34;;;;;;;2.65;1.10;;;14.30;99.90;;;;;;4875895;29;20049;-79
2021/12/30 18:25:07;;;;;;;3.60;1.10;;;14.30;99.90;;;;;;4876727;29;20053;-79
2021/12/30 18:27:34;;;;;;;3.03;1.20;;;14.30;99.90;;;;;;4869959;29;20049;-79
2021/12/30 18:30:01;;;;;;;3.60;1.27;;;14.30;99.90;;;;;;4876543;29;20096;-79
2021/12/30 18:32:29;;;;;;;10.50;4.72;;;14.30;99.90;;;;;;4874772;29;20053;-78
2021/12/30 18:34:58;;;;;;;9.98;4.93;;;14.30;99.90;;;;;;4876480;29;20045;-79
2021/12/30 18:37:26;;;;;;;5.75;2.60;;;14.30;99.90;;;;;;4867756;29;20053;-78
2021/12/30 18:39:54;;;;;;;4.00;1.38;;;14.30;99.90;;;;;;4875946;29;20049;-81
2021/12/30 18:42:25;;;;;;;2.47;1.02;;;14.30;99.90;;;;;;4875835;29;20057;-79
2021/12/30 18:44:52;;;;;;;3.42;1.40;;;14.30;99.90;;;;;;4874950;29;20052;-78
2021/12/30 18:47:19;;;;;;;2.72;1.20;;;14.30;99.90;;;;;;4874962;29;20079;-81
2021/12/30 18:49:46;;;;;;;2.78;1.30;;;14.30;99.90;;;;;;4876503;29;20131;-78
2021/12/30 18:52:17;;;;;;;2.45;1.15;;;14.20;99.90;;;;;;4876013;29;20051;-79
2021/12/30 18:54:45;;;;;;;4.22;1.50;;;14.20;99.90;;;;;;4874701;29;20049;-82
2021/12/30 18:57:12;;;;;;;3.85;1.52;;;14.20;99.90;;;;;;4872571;29;20556;-79
2021/12/30 18:59:42;;;;;;;2.80;1.13;;;14.20;99.90;;;;;;4877642;29;20052;-78
2021/12/30 19:02:10;;;;;;;3.40;1.35;;;14.20;99.90;;;;;;4875635;29;20088;-80
2021/12/30 19:04:37;;;;;;;3.25;1.33;;;14.20;99.90;;;;;;4877169;29;20673;-77